Terminal Aerodrome Forecast
Issued by NWS Charleston, WV

Home | Current Version | Previous Version | Text Only | Print | Product List | Glossary On
Versions: 1 2 3 4 5 6 7 8 9 10 11 12 13 14 15 16 17 18 19 20
000
FTUS41 KRLX 211100
TAFPKB
TAF
KPKB 211136Z 2112/2212 00000KT P6SM BKN025
     FM211700 VRB03KT P6SM BKN030
     FM212200 00000KT P6SM SCT030
     FM220100 00000KT P6SM SCT250
     FM221100 13003KT P6SM BKN070=

USA.gov is the U.S. government's official web portal to all federal, state and local government web resources and services.